Time;durP1;ratioP1;P1;durP2;ratioP2;P2;SDS_P1;SDS_P2;PMS_P1;PMS_P2;Temp;Humidity;BMP_temperature;BMP_pressure;BME280_temperature;BME280_humidity;BME280_pressure;Samples;Min_cycle;Max_cycle;Signal;HPM_P1;HPM_P2
2023/02/07 00:02:02;;;;;;;11.00;7.00;;;;;;;;;;5013160;28;20166;-64
2023/02/07 00:04:28;;;;;;;10.27;6.63;;;;;;;;;;5012473;28;20193;-61
2023/02/07 00:06:55;;;;;;;12.00;7.10;;;;;;;;;;5013754;28;20158;-60
2023/02/07 00:09:21;;;;;;;12.88;7.15;;;;;;;;;;5013886;28;20174;-60
2023/02/07 00:11:47;;;;;;;13.43;7.20;;;;;;;;;;5014334;28;20283;-64
2023/02/07 00:14:13;;;;;;;12.95;6.85;;;;;;;;;;5025490;28;20234;-62
2023/02/07 00:16:39;;;;;;;9.43;6.40;;;;;;;;;;5033372;28;20312;-63
2023/02/07 00:19:05;;;;;;;14.10;6.97;;;;;;;;;;5032822;28;20192;-63
2023/02/07 00:21:31;;;;;;;13.05;7.45;;;;;;;;;;5031557;28;20170;-64
2023/02/07 00:23:58;;;;;;;11.10;7.30;;;;;;;;;;5032381;28;20581;-63
2023/02/07 00:26:25;;;;;;;14.77;7.03;;;;;;;;;;5029927;28;20186;-63
2023/02/07 00:28:52;;;;;;;14.43;7.43;;;;;;;;;;5024551;28;20174;-62
2023/02/07 00:31:22;;;;;;;16.10;8.02;;;;;;;;;;5026735;28;20179;-63
2023/02/07 00:33:49;;;;;;;16.45;7.85;;;;;;;;;;5022668;28;20641;-64
2023/02/07 00:36:17;;;;;;;12.35;7.53;;;;;;;;;;5029976;28;20242;-63
2023/02/07 00:38:43;;;;;;;11.57;7.68;;;;;;;;;;5031590;28;20188;-63
2023/02/07 00:41:13;;;;;;;16.50;7.50;;;;;;;;;;5024675;28;20261;-62
2023/02/07 00:43:39;;;;;;;14.18;8.10;;;;;;;;;;5011886;28;20532;-62
2023/02/07 00:46:05;;;;;;;22.00;8.32;;;;;;;;;;5012563;28;20174;-61
2023/02/07 00:48:32;;;;;;;14.13;7.30;;;;;;;;;;5012914;28;20226;-61
2023/02/07 00:50:58;;;;;;;15.82;8.02;;;;;;;;;;5012327;28;20190;-61
2023/02/07 00:53:25;;;;;;;13.70;7.40;;;;;;;;;;5012571;28;20166;-61
2023/02/07 00:55:51;;;;;;;14.05;7.25;;;;;;;;;;5012575;28;20166;-62
2023/02/07 00:58:17;;;;;;;15.98;7.78;;;;;;;;;;5012615;28;20163;-62
2023/02/07 01:00:42;;;;;;;15.07;8.18;;;;;;;;;;5012045;28;20196;-62
2023/02/07 01:03:09;;;;;;;15.02;7.55;;;;;;;;;;5012114;28;20201;-63
2023/02/07 01:05:36;;;;;;;12.95;7.80;;;;;;;;;;5012387;28;20166;-63
2023/02/07 01:08:02;;;;;;;12.38;7.68;;;;;;;;;;5012697;28;20196;-62
2023/02/07 01:10:28;;;;;;;16.55;8.25;;;;;;;;;;5013203;28;20180;-62
2023/02/07 01:12:54;;;;;;;13.32;7.68;;;;;;;;;;5012616;28;20258;-63
2023/02/07 01:15:20;;;;;;;16.90;8.70;;;;;;;;;;5012161;28;20261;-62
2023/02/07 01:17:46;;;;;;;14.95;7.90;;;;;;;;;;5012002;28;20174;-62
2023/02/07 01:20:14;;;;;;;14.55;7.93;;;;;;;;;;5012075;28;20482;-63
2023/02/07 01:22:40;;;;;;;13.13;7.65;;;;;;;;;;5011924;28;20198;-61
2023/02/07 01:25:06;;;;;;;14.13;7.88;;;;;;;;;;5011165;28;20195;-60
2023/02/07 01:27:33;;;;;;;15.35;7.95;;;;;;;;;;5011993;28;20163;-62
2023/02/07 01:30:01;;;;;;;15.70;8.02;;;;;;;;;;5012119;28;20613;-62
2023/02/07 01:32:27;;;;;;;14.48;7.78;;;;;;;;;;5011740;28;20185;-62
2023/02/07 01:34:53;;;;;;;14.20;7.82;;;;;;;;;;5015547;28;20174;-62
2023/02/07 01:37:19;;;;;;;14.77;8.15;;;;;;;;;;5015291;28;20167;-62
2023/02/07 01:39:46;;;;;;;16.75;7.72;;;;;;;;;;5015353;28;20193;-61
2023/02/07 01:42:13;;;;;;;15.48;8.43;;;;;;;;;;5015097;28;20572;-62
2023/02/07 01:44:42;;;;;;;13.52;7.47;;;;;;;;;;5015454;28;20537;-61
2023/02/07 01:47:11;;;;;;;11.48;7.35;;;;;;;;;;5015004;28;20167;-61
2023/02/07 01:49:37;;;;;;;20.80;8.45;;;;;;;;;;5015407;28;20203;-62
2023/02/07 01:52:06;;;;;;;15.15;7.95;;;;;;;;;;5015044;28;20249;-62
2023/02/07 01:54:34;;;;;;;16.05;8.07;;;;;;;;;;5015010;28;20630;-62
2023/02/07 01:57:02;;;;;;;15.75;7.63;;;;;;;;;;5015016;28;20170;-63
2023/02/07 01:59:31;;;;;;;18.48;8.45;;;;;;;;;;5014620;28;20608;-61
2023/02/07 02:01:57;;;;;;;15.88;9.02;;;;;;;;;;5015066;28;20155;-59
2023/02/07 02:04:23;;;;;;;20.60;9.23;;;;;;;;;;5014615;28;20206;-60
2023/02/07 02:06:49;;;;;;;15.55;8.63;;;;;;;;;;5015221;28;20506;-63
2023/02/07 02:09:15;;;;;;;14.90;8.75;;;;;;;;;;5014890;28;20573;-62
2023/02/07 02:11:44;;;;;;;17.88;8.73;;;;;;;;;;5014516;28;20615;-63
2023/02/07 02:14:16;;;;;;;19.55;9.07;;;;;;;;;;5014764;28;20174;-62
2023/02/07 02:17:01;;;;;;;19.17;9.15;;;;;;;;;;5014406;28;20635;-62
2023/02/07 02:19:40;;;;;;;16.65;8.95;;;;;;;;;;5014468;28;20499;-63
2023/02/07 02:22:24;;;;;;;19.95;10.15;;;;;;;;;;5014682;28;20170;-63
2023/02/07 02:25:09;;;;;;;18.35;9.25;;;;;;;;;;5014404;28;20177;-61
2023/02/07 02:27:43;;;;;;;16.65;9.27;;;;;;;;;;5014501;28;20249;-62
2023/02/07 02:30:19;;;;;;;19.42;9.82;;;;;;;;;;5014259;28;20536;-61
2023/02/07 02:32:54;;;;;;;16.60;9.13;;;;;;;;;;5013701;28;20162;-63
2023/02/07 02:35:29;;;;;;;18.42;9.70;;;;;;;;;;5014487;28;20178;-64
2023/02/07 02:38:01;;;;;;;18.80;9.75;;;;;;;;;;5014252;28;20173;-62
2023/02/07 02:40:42;;;;;;;22.35;9.75;;;;;;;;;;5017677;28;20631;-63
2023/02/07 02:43:11;;;;;;;20.15;9.77;;;;;;;;;;5017939;28;20202;-63
2023/02/07 02:45:46;;;;;;;19.27;9.68;;;;;;;;;;5013645;28;20569;-63
2023/02/07 02:48:13;;;;;;;19.65;8.88;;;;;;;;;;5015723;28;20255;-63
2023/02/07 02:50:44;;;;;;;15.65;9.32;;;;;;;;;;5015353;28;20554;-63
2023/02/07 02:53:10;;;;;;;23.15;9.98;;;;;;;;;;5014621;28;20186;-63
2023/02/07 02:55:56;;;;;;;23.27;10.20;;;;;;;;;;5028931;28;20170;-63
2023/02/07 02:58:41;;;;;;;21.48;10.00;;;;;;;;;;5066721;28;20182;-60
2023/02/07 03:01:13;;;;;;;17.17;9.40;;;;;;;;;;5024746;28;20206;-61
2023/02/07 03:03:59;;;;;;;17.08;9.07;;;;;;;;;;5029736;28;20220;-63
2023/02/07 03:06:35;;;;;;;17.23;8.95;;;;;;;;;;5030121;28;20155;-63
2023/02/07 03:09:16;;;;;;;17.95;9.52;;;;;;;;;;5029458;28;20185;-63
2023/02/07 03:11:50;;;;;;;18.38;9.65;;;;;;;;;;5029730;28;20170;-61
2023/02/07 03:14:24;;;;;;;23.88;9.77;;;;;;;;;;5023794;28;20249;-60
2023/02/07 03:17:09;;;;;;;18.20;10.13;;;;;;;;;;5015228;28;20300;-62
2023/02/07 03:19:38;;;;;;;20.77;9.90;;;;;;;;;;5014111;28;20189;-64
2023/02/07 03:22:09;;;;;;;20.15;10.07;;;;;;;;;;5013829;28;20174;-61
2023/02/07 03:24:41;;;;;;;23.08;9.70;;;;;;;;;;5021189;28;20218;-63
2023/02/07 03:27:08;;;;;;;26.23;9.98;;;;;;;;;;5028916;28;20159;-63
2023/02/07 03:29:36;;;;;;;20.25;9.48;;;;;;;;;;5023610;28;20196;-59
2023/02/07 03:32:03;;;;;;;21.10;10.02;;;;;;;;;;5013794;28;20167;-61
2023/02/07 03:34:34;;;;;;;20.25;10.32;;;;;;;;;;5013654;28;20170;-61
2023/02/07 03:37:05;;;;;;;19.90;9.90;;;;;;;;;;5013971;28;20159;-60
2023/02/07 03:39:32;;;;;;;22.55;10.55;;;;;;;;;;5013940;28;20192;-62
2023/02/07 03:42:00;;;;;;;22.50;11.30;;;;;;;;;;5013810;28;20170;-62
2023/02/07 03:44:27;;;;;;;21.90;10.48;;;;;;;;;;5013240;28;20258;-63
2023/02/07 03:46:54;;;;;;;22.15;11.05;;;;;;;;;;5013754;28;20178;-62
2023/02/07 03:49:20;;;;;;;22.50;10.43;;;;;;;;;;5013092;28;20213;-63
2023/02/07 03:51:46;;;;;;;22.10;10.85;;;;;;;;;;5013837;28;20216;-61
2023/02/07 03:54:12;;;;;;;20.83;10.48;;;;;;;;;;5014662;28;20171;-63
2023/02/07 03:56:39;;;;;;;22.92;10.60;;;;;;;;;;5012258;28;20677;-64
2023/02/07 03:59:05;;;;;;;25.25;11.00;;;;;;;;;;5013195;28;20188;-63
2023/02/07 04:01:31;;;;;;;21.25;9.55;;;;;;;;;;5012912;28;20699;-63
2023/02/07 04:03:57;;;;;;;18.60;10.43;;;;;;;;;;5012873;28;20267;-63
2023/02/07 04:06:23;;;;;;;20.40;10.05;;;;;;;;;;5012939;28;20609;-62
2023/02/07 04:08:50;;;;;;;18.05;9.05;;;;;;;;;;5013079;28;20227;-62
2023/02/07 04:11:15;;;;;;;18.42;9.25;;;;;;;;;;5013160;28;20174;-62
2023/02/07 04:13:41;;;;;;;18.88;9.55;;;;;;;;;;5014107;28;20214;-61
2023/02/07 04:16:07;;;;;;;18.67;9.63;;;;;;;;;;5013210;28;20182;-60
2023/02/07 04:18:34;;;;;;;20.40;9.23;;;;;;;;;;5013019;28;20500;-62
2023/02/07 04:21:02;;;;;;;21.70;10.25;;;;;;;;;;5013158;28;20173;-59
2023/02/07 04:23:28;;;;;;;23.27;10.40;;;;;;;;;;5012637;28;20194;-63
2023/02/07 04:25:54;;;;;;;19.95;9.57;;;;;;;;;;5012536;28;20620;-63
2023/02/07 04:28:20;;;;;;;18.20;8.98;;;;;;;;;;5012788;28;20166;-63
2023/02/07 04:30:46;;;;;;;17.58;9.65;;;;;;;;;;5012850;28;20174;-62
2023/02/07 04:33:12;;;;;;;20.27;9.18;;;;;;;;;;5012507;28;20217;-63
2023/02/07 04:35:38;;;;;;;17.15;9.68;;;;;;;;;;5013274;28;20558;-61
2023/02/07 04:38:04;;;;;;;17.27;8.68;;;;;;;;;;5012988;28;20295;-62
2023/02/07 04:40:30;;;;;;;22.25;10.20;;;;;;;;;;5012728;28;20541;-63
2023/02/07 04:42:58;;;;;;;20.95;10.18;;;;;;;;;;5012150;28;20268;-63
2023/02/07 04:45:24;;;;;;;18.35;9.45;;;;;;;;;;5012087;28;20475;-62
2023/02/07 04:47:50;;;;;;;19.35;8.93;;;;;;;;;;5012686;28;20170;-63
2023/02/07 04:50:16;;;;;;;17.80;9.55;;;;;;;;;;5013011;28;20526;-61
2023/02/07 04:52:42;;;;;;;20.00;9.10;;;;;;;;;;5012533;28;20232;-63
2023/02/07 04:55:10;;;;;;;19.02;9.27;;;;;;;;;;5012590;28;20178;-62
2023/02/07 04:57:36;;;;;;;16.55;9.20;;;;;;;;;;5012488;28;20170;-63
2023/02/07 05:00:02;;;;;;;20.80;9.93;;;;;;;;;;5012191;28;20516;-62
2023/02/07 05:02:28;;;;;;;18.38;8.98;;;;;;;;;;5012078;28;20198;-61
2023/02/07 05:04:54;;;;;;;24.17;9.45;;;;;;;;;;5012148;28;20169;-61
2023/02/07 05:07:20;;;;;;;21.85;10.20;;;;;;;;;;5013170;28;20194;-61
2023/02/07 05:09:46;;;;;;;19.35;9.45;;;;;;;;;;5015576;28;20494;-61
2023/02/07 05:12:12;;;;;;;21.17;9.90;;;;;;;;;;5016321;28;20178;-61
2023/02/07 05:14:38;;;;;;;18.63;8.40;;;;;;;;;;5015675;28;20181;-62
2023/02/07 05:17:04;;;;;;;22.42;9.93;;;;;;;;;;5015624;28;20166;-61
2023/02/07 05:19:30;;;;;;;18.00;8.82;;;;;;;;;;5015938;28;20234;-60
2023/02/07 05:21:56;;;;;;;20.02;9.25;;;;;;;;;;5016054;28;20659;-61
2023/02/07 05:24:22;;;;;;;20.60;9.57;;;;;;;;;;5015462;28;20190;-61
2023/02/07 05:26:48;;;;;;;22.67;9.40;;;;;;;;;;5015980;28;20171;-60
2023/02/07 05:29:14;;;;;;;21.55;9.98;;;;;;;;;;5015599;28;20177;-61
2023/02/07 05:34:25;;;;;;;22.80;10.88;;;;;;;;;;5015855;28;20291;-61
2023/02/07 05:36:52;;;;;;;19.63;10.50;;;;;;;;;;5015404;28;20601;-59
2023/02/07 05:39:19;;;;;;;23.33;10.77;;;;;;;;;;5015195;28;20608;-63
2023/02/07 05:41:45;;;;;;;17.98;9.80;;;;;;;;;;5015718;28;20174;-61
2023/02/07 05:44:11;;;;;;;23.13;10.65;;;;;;;;;;5015551;28;20651;-61
2023/02/07 05:46:38;;;;;;;19.63;10.75;;;;;;;;;;5015528;28;20639;-62
2023/02/07 05:49:04;;;;;;;24.85;10.73;;;;;;;;;;5015641;28;20179;-57
2023/02/07 05:51:30;;;;;;;24.63;11.35;;;;;;;;;;5015211;28;20563;-63
2023/02/07 05:53:56;;;;;;;23.35;11.23;;;;;;;;;;5015146;28;20170;-64
2023/02/07 05:56:22;;;;;;;23.73;10.75;;;;;;;;;;5015143;28;20170;-63
2023/02/07 05:58:48;;;;;;;24.13;11.50;;;;;;;;;;5015416;28;20174;-62
2023/02/07 06:01:14;;;;;;;20.08;10.52;;;;;;;;;;5015073;28;20624;-64
2023/02/07 06:03:40;;;;;;;24.92;11.35;;;;;;;;;;5014883;28;20613;-63
2023/02/07 06:06:06;;;;;;;22.67;11.02;;;;;;;;;;5014975;28;20173;-63
2023/02/07 06:08:32;;;;;;;21.27;11.38;;;;;;;;;;5014898;28;20162;-63
2023/02/07 06:10:59;;;;;;;24.40;12.05;;;;;;;;;;5014771;28;20175;-63
2023/02/07 06:13:25;;;;;;;20.88;10.65;;;;;;;;;;5014554;28;20169;-63
2023/02/07 06:15:51;;;;;;;24.20;11.98;;;;;;;;;;5014984;28;20174;-63
2023/02/07 06:18:17;;;;;;;22.75;11.68;;;;;;;;;;5014895;28;20171;-62
2023/02/07 06:20:43;;;;;;;20.83;10.95;;;;;;;;;;5026564;28;20186;-63
2023/02/07 06:23:09;;;;;;;25.10;11.27;;;;;;;;;;5034469;28;20258;-62
2023/02/07 06:25:35;;;;;;;23.95;11.50;;;;;;;;;;5026788;28;20207;-60
2023/02/07 06:28:01;;;;;;;22.73;10.63;;;;;;;;;;5014821;28;20198;-61
2023/02/07 06:30:27;;;;;;;30.27;11.13;;;;;;;;;;5015044;28;20187;-62
2023/02/07 06:32:53;;;;;;;20.83;10.32;;;;;;;;;;5016135;28;20611;-62
2023/02/07 06:35:19;;;;;;;19.92;10.23;;;;;;;;;;5014513;28;20188;-62
2023/02/07 06:37:45;;;;;;;23.23;11.50;;;;;;;;;;5024731;28;20182;-62
2023/02/07 06:40:11;;;;;;;22.35;10.13;;;;;;;;;;5032769;28;20181;-63
2023/02/07 06:42:37;;;;;;;23.88;11.32;;;;;;;;;;5029082;28;20217;-63
2023/02/07 06:45:03;;;;;;;20.38;11.23;;;;;;;;;;5017849;28;20182;-63
2023/02/07 06:47:29;;;;;;;21.27;10.77;;;;;;;;;;5016805;28;20258;-62
2023/02/07 06:49:55;;;;;;;18.95;9.93;;;;;;;;;;5016194;28;20255;-62
2023/02/07 06:52:21;;;;;;;15.80;8.55;;;;;;;;;;5019004;28;20166;-60
2023/02/07 06:54:47;;;;;;;23.73;10.77;;;;;;;;;;5014907;28;20484;-63
2023/02/07 06:57:13;;;;;;;22.02;11.38;;;;;;;;;;5015013;28;20185;-61
2023/02/07 06:59:39;;;;;;;29.92;12.25;;;;;;;;;;5015296;28;20224;-63
2023/02/07 07:02:05;;;;;;;24.13;12.50;;;;;;;;;;5014873;28;20215;-62
2023/02/07 07:04:31;;;;;;;20.25;10.23;;;;;;;;;;5015469;28;20213;-61
2023/02/07 07:06:58;;;;;;;22.63;10.73;;;;;;;;;;5015051;28;20170;-62
2023/02/07 07:09:25;;;;;;;18.70;10.52;;;;;;;;;;5014673;28;20174;-61
2023/02/07 07:11:51;;;;;;;21.23;10.75;;;;;;;;;;5014526;28;20162;-60
2023/02/07 07:14:17;;;;;;;24.90;11.90;;;;;;;;;;5015322;28;20174;-61
2023/02/07 07:16:43;;;;;;;25.73;12.00;;;;;;;;;;5025024;28;20181;-61
2023/02/07 07:19:09;;;;;;;31.75;13.35;;;;;;;;;;5027216;28;20198;-62
2023/02/07 07:21:35;;;;;;;23.75;12.05;;;;;;;;;;5025854;28;20166;-62
2023/02/07 07:24:01;;;;;;;32.65;14.38;;;;;;;;;;5030999;28;20468;-63
2023/02/07 07:26:27;;;;;;;28.88;13.80;;;;;;;;;;5031177;28;20190;-62
2023/02/07 07:28:57;;;;;;;30.50;13.68;;;;;;;;;;5025101;28;20171;-62
2023/02/07 07:31:23;;;;;;;24.55;12.13;;;;;;;;;;5018523;28;20170;-63
2023/02/07 07:33:49;;;;;;;28.77;12.60;;;;;;;;;;5023923;28;20175;-63
2023/02/07 07:36:15;;;;;;;24.83;11.95;;;;;;;;;;5020451;28;20602;-63
2023/02/07 07:38:41;;;;;;;24.00;11.48;;;;;;;;;;5020623;28;20181;-63
2023/02/07 07:41:09;;;;;;;25.02;12.18;;;;;;;;;;5019948;28;20260;-62
2023/02/07 07:43:36;;;;;;;24.42;12.45;;;;;;;;;;5018161;28;20217;-62
2023/02/07 07:46:02;;;;;;;24.50;12.85;;;;;;;;;;5017885;28;20166;-63
2023/02/07 07:48:28;;;;;;;25.25;12.65;;;;;;;;;;5017352;28;20159;-59
2023/02/07 07:50:54;;;;;;;25.70;12.55;;;;;;;;;;5013989;28;20162;-58
2023/02/07 07:53:20;;;;;;;29.50;14.10;;;;;;;;;;5013473;28;20227;-62
2023/02/07 07:55:53;;;;;;;27.98;14.07;;;;;;;;;;5013470;28;20192;-61
2023/02/07 07:58:20;;;;;;;25.63;13.20;;;;;;;;;;5013259;28;20174;-63
2023/02/07 08:00:47;;;;;;;27.58;12.98;;;;;;;;;;5013078;28;20291;-63
2023/02/07 08:03:14;;;;;;;25.23;12.88;;;;;;;;;;5013578;28;20199;-63
2023/02/07 08:05:40;;;;;;;28.17;13.57;;;;;;;;;;5013001;28;20166;-61
2023/02/07 08:08:06;;;;;;;29.05;14.07;;;;;;;;;;5013860;28;20177;-60
2023/02/07 08:10:32;;;;;;;25.55;13.48;;;;;;;;;;5013134;28;20170;-62
2023/02/07 08:12:58;;;;;;;25.40;12.85;;;;;;;;;;5013196;28;20174;-61
2023/02/07 08:15:25;;;;;;;27.02;12.90;;;;;;;;;;5012879;28;20545;-61
2023/02/07 08:17:51;;;;;;;24.20;13.23;;;;;;;;;;5013090;28;20167;-62
2023/02/07 08:20:17;;;;;;;28.40;14.02;;;;;;;;;;5013781;28;20253;-62
2023/02/07 08:22:43;;;;;;;27.60;14.02;;;;;;;;;;5013547;28;20304;-62
2023/02/07 08:25:09;;;;;;;29.70;14.70;;;;;;;;;;5013029;28;20159;-63
2023/02/07 08:27:35;;;;;;;25.63;13.48;;;;;;;;;;5013262;28;20163;-62
2023/02/07 08:30:01;;;;;;;26.73;13.88;;;;;;;;;;5013021;28;20166;-63
2023/02/07 08:32:28;;;;;;;26.20;13.25;;;;;;;;;;5013157;28;20151;-62
2023/02/07 08:34:55;;;;;;;24.67;13.02;;;;;;;;;;5012807;28;20178;-62
2023/02/07 08:37:22;;;;;;;25.77;13.30;;;;;;;;;;5012793;28;20181;-62
2023/02/07 08:39:51;;;;;;;27.02;14.05;;;;;;;;;;5013271;28;20189;-61
2023/02/07 08:42:17;;;;;;;26.88;13.95;;;;;;;;;;5013001;28;20596;-60
2023/02/07 08:44:45;;;;;;;26.02;13.15;;;;;;;;;;5016779;28;20170;-62
2023/02/07 08:47:12;;;;;;;25.30;14.52;;;;;;;;;;5016806;28;20486;-60
2023/02/07 08:49:38;;;;;;;27.70;14.23;;;;;;;;;;5016089;28;20604;-59
2023/02/07 08:52:04;;;;;;;26.15;14.20;;;;;;;;;;5016817;28;20189;-63
2023/02/07 08:54:30;;;;;;;23.77;13.55;;;;;;;;;;5016950;28;20166;-62
2023/02/07 08:56:56;;;;;;;25.65;14.05;;;;;;;;;;5018436;28;20596;-61
2023/02/07 08:59:22;;;;;;;25.63;14.43;;;;;;;;;;5018051;28;20175;-60
2023/02/07 09:01:48;;;;;;;23.20;13.10;;;;;;;;;;5016444;28;20185;-59
2023/02/07 09:04:14;;;;;;;26.75;14.80;;;;;;;;;;5016172;28;20194;-61
2023/02/07 09:06:40;;;;;;;23.40;13.88;;;;;;;;;;5016131;28;20151;-61
2023/02/07 09:09:06;;;;;;;26.90;13.75;;;;;;;;;;5016107;28;20320;-61
2023/02/07 09:11:33;;;;;;;27.70;14.27;;;;;;;;;;5016256;28;20158;-61
2023/02/07 09:14:00;;;;;;;24.35;13.27;;;;;;;;;;5016479;28;20669;-60
2023/02/07 09:16:26;;;;;;;24.88;12.65;;;;;;;;;;5016267;28;20505;-60
2023/02/07 09:18:52;;;;;;;27.42;14.10;;;;;;;;;;5016203;28;20167;-60
2023/02/07 09:21:18;;;;;;;24.33;13.57;;;;;;;;;;5014962;28;20171;-60
2023/02/07 09:23:45;;;;;;;23.05;13.85;;;;;;;;;;5015761;28;20198;-60
2023/02/07 09:26:16;;;;;;;24.45;12.93;;;;;;;;;;5016023;28;20281;-61
2023/02/07 09:28:42;;;;;;;25.90;12.98;;;;;;;;;;5016618;28;20197;-63
2023/02/07 09:31:09;;;;;;;25.33;13.40;;;;;;;;;;5015538;28;20589;-61
2023/02/07 09:33:35;;;;;;;24.77;13.25;;;;;;;;;;5015750;28;20258;-60
2023/02/07 09:36:01;;;;;;;26.70;13.68;;;;;;;;;;5015219;28;20521;-61
2023/02/07 09:38:28;;;;;;;23.48;13.25;;;;;;;;;;5014701;28;20186;-60
2023/02/07 09:40:56;;;;;;;24.15;13.63;;;;;;;;;;5015349;28;20245;-62
2023/02/07 09:43:43;;;;;;;25.90;13.55;;;;;;;;;;5015533;28;20221;-62
2023/02/07 09:46:20;;;;;;;21.17;12.23;;;;;;;;;;5015534;28;20558;-60
2023/02/07 09:49:03;;;;;;;21.75;12.65;;;;;;;;;;5015600;28;20182;-62
2023/02/07 09:51:31;;;;;;;21.65;12.25;;;;;;;;;;5015345;28;20489;-62
2023/02/07 09:53:59;;;;;;;25.13;12.73;;;;;;;;;;5015278;28;20185;-62
2023/02/07 09:56:26;;;;;;;21.55;12.35;;;;;;;;;;5015257;28;20180;-61
2023/02/07 09:58:58;;;;;;;23.67;12.55;;;;;;;;;;5015610;28;20181;-62
2023/02/07 10:01:27;;;;;;;19.90;12.35;;;;;;;;;;5015080;28;20674;-63
2023/02/07 10:04:11;;;;;;;21.25;11.65;;;;;;;;;;5014686;28;20209;-64
2023/02/07 10:06:39;;;;;;;20.45;11.93;;;;;;;;;;5015009;28;20174;-63
2023/02/07 10:09:09;;;;;;;23.67;11.77;;;;;;;;;;5015119;28;20167;-63
2023/02/07 10:11:40;;;;;;;19.25;11.00;;;;;;;;;;5014695;28;20162;-61
2023/02/07 10:14:25;;;;;;;18.20;10.40;;;;;;;;;;5015890;28;20177;-62
2023/02/07 10:16:51;;;;;;;18.40;10.95;;;;;;;;;;5015216;28;20217;-62
2023/02/07 10:19:37;;;;;;;18.90;10.55;;;;;;;;;;5014960;28;20194;-63
2023/02/07 10:22:06;;;;;;;22.00;11.88;;;;;;;;;;5015004;28;20505;-60
2023/02/07 10:24:57;;;;;;;20.52;11.52;;;;;;;;;;5015126;28;20194;-62
2023/02/07 10:27:30;;;;;;;17.13;10.45;;;;;;;;;;5014752;28;20163;-62
2023/02/07 10:30:05;;;;;;;17.98;10.80;;;;;;;;;;5014662;28;20616;-61
2023/02/07 10:32:32;;;;;;;19.30;10.57;;;;;;;;;;5015004;28;20174;-62
2023/02/07 10:35:07;;;;;;;18.42;11.10;;;;;;;;;;5015183;28;20178;-62
2023/02/07 10:37:36;;;;;;;19.63;11.80;;;;;;;;;;5024575;28;20146;-63
2023/02/07 10:40:05;;;;;;;19.90;11.10;;;;;;;;;;5033103;28;20162;-62
2023/02/07 10:42:33;;;;;;;17.17;10.80;;;;;;;;;;5033683;28;20181;-62
2023/02/07 10:45:00;;;;;;;19.73;13.23;;;;;;;;;;5027790;28;20431;-60
2023/02/07 10:47:26;;;;;;;20.25;12.18;;;;;;;;;;5028045;28;20219;-63
2023/02/07 10:49:54;;;;;;;17.05;10.98;;;;;;;;;;5023084;28;20182;-60
2023/02/07 10:52:20;;;;;;;19.52;11.52;;;;;;;;;;5018718;28;20303;-61
2023/02/07 10:54:56;;;;;;;21.23;12.13;;;;;;;;;;5019631;28;20600;-60
2023/02/07 10:57:23;;;;;;;16.25;10.32;;;;;;;;;;5019726;28;20165;-61
2023/02/07 10:59:57;;;;;;;18.05;10.20;;;;;;;;;;5023068;28;20247;-62
2023/02/07 11:02:31;;;;;;;16.40;9.13;;;;;;;;;;5023408;28;20250;-61
2023/02/07 11:04:59;;;;;;;17.10;10.55;;;;;;;;;;5021863;28;20201;-62
2023/02/07 11:07:26;;;;;;;16.40;9.63;;;;;;;;;;5017126;28;20186;-60
2023/02/07 11:10:12;;;;;;;18.15;10.80;;;;;;;;;;5016018;28;20162;-61
2023/02/07 11:12:45;;;;;;;19.52;10.57;;;;;;;;;;5014746;28;20163;-57
2023/02/07 11:15:19;;;;;;;16.08;10.02;;;;;;;;;;5014572;28;20592;-61
2023/02/07 11:17:47;;;;;;;17.88;9.93;;;;;;;;;;5014499;28;20170;-60
2023/02/07 11:20:18;;;;;;;17.48;10.57;;;;;;;;;;5014600;28;20178;-61
2023/02/07 11:22:44;;;;;;;17.83;10.45;;;;;;;;;;5013829;28;20182;-63
2023/02/07 11:25:11;;;;;;;16.13;9.80;;;;;;;;;;5013979;28;20611;-62
2023/02/07 11:27:38;;;;;;;20.02;10.93;;;;;;;;;;5014306;28;20243;-62
2023/02/07 11:30:07;;;;;;;16.15;10.45;;;;;;;;;;5014204;28;20216;-61
2023/02/07 11:32:35;;;;;;;15.32;9.95;;;;;;;;;;5014452;28;20166;-62
2023/02/07 11:35:07;;;;;;;17.30;10.00;;;;;;;;;;5014812;28;20167;-60
2023/02/07 11:37:34;;;;;;;14.25;8.75;;;;;;;;;;5019332;28;20207;-63
2023/02/07 11:40:21;;;;;;;16.55;9.18;;;;;;;;;;5026579;28;20207;-60
2023/02/07 11:42:49;;;;;;;14.38;8.65;;;;;;;;;;5022632;28;20281;-60
2023/02/07 11:45:17;;;;;;;14.18;8.82;;;;;;;;;;5017157;28;20497;-61
2023/02/07 11:47:47;;;;;;;15.02;9.50;;;;;;;;;;5017136;28;20167;-60
2023/02/07 11:50:19;;;;;;;15.18;9.35;;;;;;;;;;5016283;28;20207;-62
2023/02/07 11:52:49;;;;;;;13.30;8.52;;;;;;;;;;5015065;28;20170;-61
2023/02/07 11:55:18;;;;;;;14.95;9.25;;;;;;;;;;5013979;28;20446;-61
2023/02/07 11:57:45;;;;;;;15.20;8.95;;;;;;;;;;5013572;28;20181;-60
2023/02/07 12:00:11;;;;;;;12.98;8.52;;;;;;;;;;5013871;28;20197;-61
2023/02/07 12:02:37;;;;;;;14.15;8.68;;;;;;;;;;5013924;28;20174;-61
2023/02/07 12:05:15;;;;;;;13.13;8.38;;;;;;;;;;5013965;28;20248;-62
2023/02/07 12:07:43;;;;;;;14.77;8.20;;;;;;;;;;5013790;28;20202;-61
2023/02/07 12:10:29;;;;;;;12.10;7.93;;;;;;;;;;5013618;28;20167;-62
2023/02/07 12:12:58;;;;;;;13.77;8.63;;;;;;;;;;5012893;28;20186;-59
2023/02/07 12:15:35;;;;;;;12.45;8.35;;;;;;;;;;5014083;28;20170;-60
2023/02/07 12:18:05;;;;;;;15.65;9.20;;;;;;;;;;5012473;28;20165;-60
2023/02/07 12:20:49;;;;;;;11.77;8.25;;;;;;;;;;5013114;28;20206;-62
2023/02/07 12:23:26;;;;;;;12.88;8.45;;;;;;;;;;5013103;28;20247;-60
2023/02/07 12:25:55;;;;;;;13.18;8.10;;;;;;;;;;5013544;28;20173;-61
2023/02/07 12:28:26;;;;;;;13.38;9.90;;;;;;;;;;5012016;28;20422;-62
2023/02/07 12:30:54;;;;;;;14.25;9.77;;;;;;;;;;5013256;28;20162;-61
2023/02/07 12:33:23;;;;;;;13.10;8.57;;;;;;;;;;5013062;28;20174;-62
2023/02/07 12:36:00;;;;;;;13.63;8.35;;;;;;;;;;5013073;28;20174;-62
2023/02/07 12:38:26;;;;;;;14.63;9.02;;;;;;;;;;5012888;28;20186;-62
2023/02/07 12:41:13;;;;;;;13.98;8.77;;;;;;;;;;5012890;28;20175;-62
2023/02/07 12:43:43;;;;;;;13.43;8.23;;;;;;;;;;5012687;28;20194;-61
2023/02/07 12:46:24;;;;;;;15.07;8.93;;;;;;;;;;5012587;28;20169;-63
2023/02/07 12:48:56;;;;;;;12.95;8.68;;;;;;;;;;5012532;28;20178;-61
2023/02/07 12:51:41;;;;;;;14.82;9.30;;;;;;;;;;5013689;28;20176;-61
2023/02/07 12:54:16;;;;;;;13.95;8.77;;;;;;;;;;5012510;28;20601;-61
2023/02/07 12:56:51;;;;;;;14.45;8.65;;;;;;;;;;5012673;28;20173;-62
2023/02/07 12:59:17;;;;;;;16.20;9.85;;;;;;;;;;5012506;28;20199;-62
2023/02/07 13:01:49;;;;;;;13.70;9.15;;;;;;;;;;5012661;28;20170;-62
2023/02/07 13:04:34;;;;;;;12.45;8.50;;;;;;;;;;5012132;28;20708;-63
2023/02/07 13:07:06;;;;;;;15.30;9.30;;;;;;;;;;5012367;28;20192;-61
2023/02/07 13:09:51;;;;;;;14.35;9.48;;;;;;;;;;5012209;28;20208;-62
2023/02/07 13:12:26;;;;;;;16.08;10.02;;;;;;;;;;5012684;28;20182;-64
2023/02/07 13:15:12;;;;;;;13.23;8.50;;;;;;;;;;5012304;28;20158;-62
2023/02/07 13:17:57;;;;;;;16.23;9.40;;;;;;;;;;5012876;28;20202;-62
2023/02/07 13:20:41;;;;;;;13.05;8.70;;;;;;;;;;5012336;28;20189;-60
2023/02/07 13:23:14;;;;;;;15.32;8.85;;;;;;;;;;5012203;28;20217;-62
2023/02/07 13:25:42;;;;;;;14.23;8.25;;;;;;;;;;5012265;28;20171;-61
2023/02/07 13:28:13;;;;;;;13.65;8.60;;;;;;;;;;5012748;28;20298;-59
2023/02/07 13:30:40;;;;;;;12.98;8.85;;;;;;;;;;5015661;28;20192;-59
2023/02/07 13:33:18;;;;;;;13.93;8.00;;;;;;;;;;5014844;28;20188;-61
2023/02/07 13:35:45;;;;;;;13.95;7.97;;;;;;;;;;5015764;28;20261;-62
2023/02/07 13:38:36;;;;;;;11.75;7.90;;;;;;;;;;5015864;28;20185;-62
2023/02/07 13:41:18;;;;;;;13.73;8.18;;;;;;;;;;5015859;28;20573;-63
2023/02/07 13:43:50;;;;;;;14.05;8.50;;;;;;;;;;5015285;28;20197;-63
2023/02/07 13:46:55;;;;;;;13.93;8.40;;;;;;;;;;5015731;28;20194;-61
2023/02/07 13:49:27;;;;;;;13.02;8.50;;;;;;;;;;5097249;28;20243;-62
2023/02/07 13:52:09;;;;;;;11.95;7.80;;;;;;;;;;5097406;28;20172;-60
2023/02/07 13:54:40;;;;;;;13.38;8.32;;;;;;;;;;5046102;28;20179;-63
2023/02/07 14:00:12;;;;;;;11.70;7.18;;;;;;;;;;5015115;28;20188;-62
2023/02/07 14:02:43;;;;;;;14.20;7.78;;;;;;;;;;5015348;28;20557;-61
2023/02/07 14:05:11;;;;;;;11.13;6.50;;;;;;;;;;5013856;28;20513;-63
2023/02/07 14:07:39;;;;;;;11.45;7.85;;;;;;;;;;5014664;28;20616;-63
2023/02/07 14:10:08;;;;;;;11.30;7.32;;;;;;;;;;5014884;28;20164;-62
2023/02/07 14:12:36;;;;;;;11.82;7.35;;;;;;;;;;5014887;28;20171;-62
2023/02/07 14:15:20;;;;;;;12.48;7.57;;;;;;;;;;5015229;28;20220;-60
2023/02/07 14:18:00;;;;;;;13.25;7.75;;;;;;;;;;5015386;28;20486;-63
2023/02/07 14:20:35;;;;;;;14.40;7.90;;;;;;;;;;5015158;28;20204;-61
2023/02/07 14:23:16;;;;;;;12.30;7.43;;;;;;;;;;5014940;28;20197;-61
2023/02/07 14:25:44;;;;;;;12.38;9.23;;;;;;;;;;5027847;28;20407;-63
2023/02/07 14:28:10;;;;;;;12.93;9.30;;;;;;;;;;5029611;28;20418;-63
2023/02/07 14:30:38;;;;;;;11.68;8.00;;;;;;;;;;5016280;28;20177;-63
2023/02/07 14:33:10;;;;;;;11.02;7.82;;;;;;;;;;5015479;28;20235;-63
2023/02/07 14:35:56;;;;;;;11.35;7.95;;;;;;;;;;5014948;28;20173;-62
2023/02/07 14:38:31;;;;;;;11.95;7.75;;;;;;;;;;5027766;28;20189;-62
2023/02/07 14:41:02;;;;;;;12.88;7.88;;;;;;;;;;5013496;28;20218;-61
2023/02/07 14:43:33;;;;;;;13.65;8.82;;;;;;;;;;5014432;28;20260;-63